logo
Rechercher aéroport 
image banner adimage banner adimage banner ad
image banner ad

EPEL - Elblag

Situé à Elblag, Poland

ICAO - EPEL, IATA - ZBG

Données fournies par Airmate  

Information générale

Coordonnées: N54°8'27" E19°25'24"
Élévation : 10 feet MSL.
Variation magnétique : 4.0000° East
Évalué:
Voir évaluations:
[VIEW]
Voir autres Aéroports à Warmia-Masuria

Données opérationnelles

Special qualification required
Heure actuelle UTC:
Heure actuelle locale:
Météo à : EPMB - Malbork ( 23 km )
TAF: TAF EPMB 141100Z 1412/1424 20005KT CAVOK TEMPO 1413/1419 5000 SHRA BKN025CB PROB30 TEMPO 1413/1419 VRB15G25KT 3000 TSRA BKN015CB
Voir NOTAMs / SUP AIP / TFR affectant cet aéroport [VIEW]
Fréquences de communication: [VIEW]

Pistes:

Identifiant RWYQFULongueur (ft)Largeur (ft)SurfaceLDA (ft)
0326°00UNK
21206°00UNK
0880°2995328GRASS2995
26260°2995328GRASS2995
10104°2297328GRASS2297
28284°2297328GRASS2297

Coordonnées de l'aéroport

Adresse: Elblag Poland

Autres services d'aviation

Clubs d'aviation (sans but lucratif)

Aeroklub Elbląski

Aeroklub Elbląski

Vue satellite de EPEL